sensor_id;sensor_type;location;lat;lon;timestamp;P1;durP1;ratioP1;P2;durP2;ratioP2
11703;SDS011;5908;51.354;7.458;2024-03-02T04:00:51;2.57;;;1.90;;
11703;SDS011;5908;51.354;7.458;2024-03-02T04:03:18;2.63;;;1.80;;
11703;SDS011;5908;51.354;7.458;2024-03-02T04:05:46;3.65;;;2.20;;
11703;SDS011;5908;51.354;7.458;2024-03-02T04:08:13;3.50;;;1.80;;
11703;SDS011;5908;51.354;7.458;2024-03-02T04:10:40;2.90;;;2.00;;
11703;SDS011;5908;51.354;7.458;2024-03-02T04:13:07;2.42;;;1.95;;
11703;SDS011;5908;51.354;7.458;2024-03-02T04:15:34;3.53;;;2.05;;
11703;SDS011;5908;51.354;7.458;2024-03-02T04:18:01;2.80;;;2.00;;
11703;SDS011;5908;51.354;7.458;2024-03-02T04:20:28;3.53;;;2.20;;
11703;SDS011;5908;51.354;7.458;2024-03-02T04:22:57;4.20;;;2.20;;
11703;SDS011;5908;51.354;7.458;2024-03-02T04:25:23;2.85;;;2.15;;
11703;SDS011;5908;51.354;7.458;2024-03-02T04:27:50;2.35;;;2.00;;
11703;SDS011;5908;51.354;7.458;2024-03-02T04:30:17;3.13;;;2.20;;
11703;SDS011;5908;51.354;7.458;2024-03-02T04:32:44;3.30;;;2.30;;
11703;SDS011;5908;51.354;7.458;2024-03-02T04:35:11;2.83;;;2.40;;
11703;SDS011;5908;51.354;7.458;2024-03-02T04:37:38;3.05;;;2.35;;
11703;SDS011;5908;51.354;7.458;2024-03-02T04:40:07;3.30;;;2.37;;
11703;SDS011;5908;51.354;7.458;2024-03-02T04:42:35;4.40;;;2.67;;
11703;SDS011;5908;51.354;7.458;2024-03-02T04:45:02;3.43;;;2.50;;
11703;SDS011;5908;51.354;7.458;2024-03-02T04:47:29;3.75;;;2.47;;
11703;SDS011;5908;51.354;7.458;2024-03-02T04:49:56;4.05;;;2.63;;
11703;SDS011;5908;51.354;7.458;2024-03-02T04:52:23;3.38;;;2.53;;
11703;SDS011;5908;51.354;7.458;2024-03-02T04:54:50;3.95;;;2.50;;
11703;SDS011;5908;51.354;7.458;2024-03-02T04:57:35;3.70;;;2.80;;
11703;SDS011;5908;51.354;7.458;2024-03-02T05:00:02;3.10;;;2.50;;
11703;SDS011;5908;51.354;7.458;2024-03-02T05:02:32;3.60;;;2.65;;
11703;SDS011;5908;51.354;7.458;2024-03-02T05:04:58;4.00;;;2.80;;
11703;SDS011;5908;51.354;7.458;2024-03-02T05:07:25;3.92;;;2.78;;
11703;SDS011;5908;51.354;7.458;2024-03-02T05:09:52;3.97;;;2.90;;
11703;SDS011;5908;51.354;7.458;2024-03-02T05:12:19;4.82;;;2.97;;
11703;SDS011;5908;51.354;7.458;2024-03-02T05:15:05;3.90;;;3.00;;
11703;SDS011;5908;51.354;7.458;2024-03-02T05:17:32;3.65;;;2.80;;
11703;SDS011;5908;51.354;7.458;2024-03-02T05:19:59;4.03;;;2.97;;
11703;SDS011;5908;51.354;7.458;2024-03-02T05:22:26;4.77;;;2.87;;
11703;SDS011;5908;51.354;7.458;2024-03-02T05:24:53;3.93;;;2.97;;
11703;SDS011;5908;51.354;7.458;2024-03-02T05:27:20;4.20;;;3.00;;
11703;SDS011;5908;51.354;7.458;2024-03-02T05:29:46;4.55;;;3.42;;
11703;SDS011;5908;51.354;7.458;2024-03-02T05:32:15;4.25;;;3.20;;
11703;SDS011;5908;51.354;7.458;2024-03-02T05:34:41;4.25;;;3.30;;
11703;SDS011;5908;51.354;7.458;2024-03-02T05:37:08;4.68;;;3.20;;
11703;SDS011;5908;51.354;7.458;2024-03-02T05:39:35;4.05;;;3.10;;
11703;SDS011;5908;51.354;7.458;2024-03-02T05:42:01;5.15;;;3.50;;
11703;SDS011;5908;51.354;7.458;2024-03-02T05:44:29;3.70;;;3.00;;
11703;SDS011;5908;51.354;7.458;2024-03-02T05:46:55;5.03;;;3.55;;
11703;SDS011;5908;51.354;7.458;2024-03-02T05:49:24;5.10;;;3.30;;
11703;SDS011;5908;51.354;7.458;2024-03-02T05:51:50;3.85;;;3.10;;
11703;SDS011;5908;51.354;7.458;2024-03-02T05:54:17;4.97;;;3.00;;
11703;SDS011;5908;51.354;7.458;2024-03-02T05:56:44;4.35;;;3.47;;
11703;SDS011;5908;51.354;7.458;2024-03-02T05:59:10;5.27;;;3.70;;
11703;SDS011;5908;51.354;7.458;2024-03-02T06:01:38;4.30;;;3.45;;
11703;SDS011;5908;51.354;7.458;2024-03-02T06:04:05;4.57;;;3.70;;
11703;SDS011;5908;51.354;7.458;2024-03-02T06:06:32;4.10;;;3.40;;
11703;SDS011;5908;51.354;7.458;2024-03-02T06:08:59;4.80;;;3.50;;
11703;SDS011;5908;51.354;7.458;2024-03-02T06:11:26;4.20;;;3.58;;
11703;SDS011;5908;51.354;7.458;2024-03-02T06:13:52;4.32;;;3.67;;
11703;SDS011;5908;51.354;7.458;2024-03-02T06:16:19;5.18;;;3.40;;
11703;SDS011;5908;51.354;7.458;2024-03-02T06:18:46;4.77;;;3.67;;
11703;SDS011;5908;51.354;7.458;2024-03-02T06:21:13;5.00;;;3.90;;
11703;SDS011;5908;51.354;7.458;2024-03-02T06:23:41;5.65;;;3.70;;
11703;SDS011;5908;51.354;7.458;2024-03-02T06:26:07;6.15;;;3.83;;
11703;SDS011;5908;51.354;7.458;2024-03-02T06:28:34;5.25;;;3.60;;
11703;SDS011;5908;51.354;7.458;2024-03-02T06:31:01;5.83;;;3.90;;
11703;SDS011;5908;51.354;7.458;2024-03-02T06:33:28;4.97;;;3.80;;
11703;SDS011;5908;51.354;7.458;2024-03-02T06:35:54;5.72;;;4.03;;
11703;SDS011;5908;51.354;7.458;2024-03-02T06:38:20;4.20;;;3.78;;
11703;SDS011;5908;51.354;7.458;2024-03-02T06:40:48;4.18;;;3.40;;
11703;SDS011;5908;51.354;7.458;2024-03-02T06:43:15;4.70;;;3.72;;
11703;SDS011;5908;51.354;7.458;2024-03-02T06:45:42;4.45;;;3.75;;
11703;SDS011;5908;51.354;7.458;2024-03-02T06:48:09;4.65;;;3.58;;
11703;SDS011;5908;51.354;7.458;2024-03-02T06:50:35;4.45;;;3.55;;
11703;SDS011;5908;51.354;7.458;2024-03-02T06:53:02;4.93;;;3.60;;
11703;SDS011;5908;51.354;7.458;2024-03-02T06:55:29;4.60;;;3.80;;
11703;SDS011;5908;51.354;7.458;2024-03-02T06:57:58;5.03;;;3.30;;
11703;SDS011;5908;51.354;7.458;2024-03-02T07:00:25;10.50;;;7.22;;
11703;SDS011;5908;51.354;7.458;2024-03-02T07:02:51;25.08;;;17.80;;
11703;SDS011;5908;51.354;7.458;2024-03-02T07:05:18;15.88;;;11.85;;
11703;SDS011;5908;51.354;7.458;2024-03-02T07:07:46;6.45;;;4.82;;
11703;SDS011;5908;51.354;7.458;2024-03-02T07:10:12;13.88;;;9.90;;
11703;SDS011;5908;51.354;7.458;2024-03-02T07:12:39;17.43;;;12.87;;
11703;SDS011;5908;51.354;7.458;2024-03-02T07:15:08;4.13;;;3.40;;
11703;SDS011;5908;51.354;7.458;2024-03-02T07:17:54;8.57;;;6.15;;
11703;SDS011;5908;51.354;7.458;2024-03-02T07:20:21;6.20;;;4.18;;
11703;SDS011;5908;51.354;7.458;2024-03-02T07:22:47;14.95;;;10.32;;
11703;SDS011;5908;51.354;7.458;2024-03-02T07:25:14;7.18;;;5.40;;
11703;SDS011;5908;51.354;7.458;2024-03-02T07:27:41;5.65;;;3.50;;
11703;SDS011;5908;51.354;7.458;2024-03-02T07:30:13;5.72;;;4.13;;
11703;SDS011;5908;51.354;7.458;2024-03-02T07:32:41;7.90;;;5.83;;
11703;SDS011;5908;51.354;7.458;2024-03-02T07:35:10;7.13;;;5.82;;
11703;SDS011;5908;51.354;7.458;2024-03-02T07:37:37;7.60;;;5.40;;
11703;SDS011;5908;51.354;7.458;2024-03-02T07:40:04;4.55;;;3.30;;
11703;SDS011;5908;51.354;7.458;2024-03-02T07:42:34;7.97;;;5.30;;
11703;SDS011;5908;51.354;7.458;2024-03-02T07:45:01;9.90;;;6.95;;
11703;SDS011;5908;51.354;7.458;2024-03-02T07:47:29;6.80;;;4.53;;
11703;SDS011;5908;51.354;7.458;2024-03-02T07:49:55;4.47;;;3.47;;
11703;SDS011;5908;51.354;7.458;2024-03-02T07:52:22;4.88;;;3.00;;
11703;SDS011;5908;51.354;7.458;2024-03-02T07:54:49;5.47;;;3.60;;
11703;SDS011;5908;51.354;7.458;2024-03-02T07:57:16;4.15;;;3.00;;
11703;SDS011;5908;51.354;7.458;2024-03-02T07:59:42;4.78;;;2.92;;
11703;SDS011;5908;51.354;7.458;2024-03-02T08:02:09;4.63;;;3.47;;
11703;SDS011;5908;51.354;7.458;2024-03-02T08:04:38;5.50;;;3.80;;
11703;SDS011;5908;51.354;7.458;2024-03-02T08:07:05;5.72;;;3.75;;
11703;SDS011;5908;51.354;7.458;2024-03-02T08:09:33;4.20;;;3.03;;
11703;SDS011;5908;51.354;7.458;2024-03-02T08:12:00;7.93;;;5.10;;
11703;SDS011;5908;51.354;7.458;2024-03-02T08:14:27;4.35;;;3.55;;
11703;SDS011;5908;51.354;7.458;2024-03-02T08:16:53;5.70;;;3.90;;
11703;SDS011;5908;51.354;7.458;2024-03-02T08:19:22;4.60;;;3.10;;
11703;SDS011;5908;51.354;7.458;2024-03-02T08:21:50;3.33;;;3.00;;
11703;SDS011;5908;51.354;7.458;2024-03-02T08:24:17;5.87;;;3.57;;
11703;SDS011;5908;51.354;7.458;2024-03-02T08:26:44;3.63;;;3.17;;
11703;SDS011;5908;51.354;7.458;2024-03-02T08:29:11;5.32;;;3.70;;
11703;SDS011;5908;51.354;7.458;2024-03-02T08:31:38;6.25;;;3.58;;
11703;SDS011;5908;51.354;7.458;2024-03-02T08:34:04;3.28;;;2.70;;
11703;SDS011;5908;51.354;7.458;2024-03-02T08:36:31;5.18;;;3.50;;
11703;SDS011;5908;51.354;7.458;2024-03-02T08:38:59;4.10;;;2.92;;
11703;SDS011;5908;51.354;7.458;2024-03-02T08:41:27;4.40;;;3.38;;
11703;SDS011;5908;51.354;7.458;2024-03-02T08:43:53;3.75;;;2.30;;
11703;SDS011;5908;51.354;7.458;2024-03-02T08:46:20;4.47;;;2.75;;
11703;SDS011;5908;51.354;7.458;2024-03-02T08:48:47;4.70;;;3.58;;
11703;SDS011;5908;51.354;7.458;2024-03-02T08:51:14;4.05;;;2.95;;
11703;SDS011;5908;51.354;7.458;2024-03-02T08:53:41;3.53;;;2.60;;
11703;SDS011;5908;51.354;7.458;2024-03-02T08:56:10;4.40;;;3.20;;
11703;SDS011;5908;51.354;7.458;2024-03-02T08:58:38;3.30;;;2.30;;
11703;SDS011;5908;51.354;7.458;2024-03-02T09:01:05;2.40;;;2.05;;
11703;SDS011;5908;51.354;7.458;2024-03-02T09:03:33;4.53;;;3.17;;
11703;SDS011;5908;51.354;7.458;2024-03-02T09:06:00;3.30;;;2.88;;
11703;SDS011;5908;51.354;7.458;2024-03-02T09:08:27;3.42;;;2.33;;
11703;SDS011;5908;51.354;7.458;2024-03-02T09:10:54;3.17;;;2.15;;
11703;SDS011;5908;51.354;7.458;2024-03-02T09:13:22;3.00;;;2.00;;
11703;SDS011;5908;51.354;7.458;2024-03-02T09:15:49;2.65;;;2.13;;
11703;SDS011;5908;51.354;7.458;2024-03-02T09:18:15;2.80;;;1.88;;
11703;SDS011;5908;51.354;7.458;2024-03-02T09:20:42;2.80;;;1.80;;
11703;SDS011;5908;51.354;7.458;2024-03-02T09:23:09;19.27;;;10.32;;
11703;SDS011;5908;51.354;7.458;2024-03-02T09:25:36;2.63;;;2.00;;
11703;SDS011;5908;51.354;7.458;2024-03-02T09:28:03;2.97;;;2.40;;
11703;SDS011;5908;51.354;7.458;2024-03-02T09:30:31;3.08;;;1.95;;
11703;SDS011;5908;51.354;7.458;2024-03-02T09:32:58;3.78;;;2.60;;
11703;SDS011;5908;51.354;7.458;2024-03-02T09:35:24;3.80;;;2.40;;
11703;SDS011;5908;51.354;7.458;2024-03-02T09:37:51;6.03;;;3.55;;
11703;SDS011;5908;51.354;7.458;2024-03-02T09:40:20;4.03;;;2.90;;
11703;SDS011;5908;51.354;7.458;2024-03-02T09:42:48;2.23;;;1.70;;
11703;SDS011;5908;51.354;7.458;2024-03-02T09:45:17;2.58;;;1.70;;
11703;SDS011;5908;51.354;7.458;2024-03-02T09:47:50;2.23;;;1.50;;
11703;SDS011;5908;51.354;7.458;2024-03-02T09:50:17;2.13;;;1.42;;
11703;SDS011;5908;51.354;7.458;2024-03-02T09:52:44;2.33;;;1.75;;
11703;SDS011;5908;51.354;7.458;2024-03-02T09:55:14;2.08;;;1.60;;
11703;SDS011;5908;51.354;7.458;2024-03-02T09:57:42;2.85;;;2.03;;
11703;SDS011;5908;51.354;7.458;2024-03-02T10:00:09;2.20;;;1.70;;
11703;SDS011;5908;51.354;7.458;2024-03-02T10:02:39;2.97;;;1.33;;
11703;SDS011;5908;51.354;7.458;2024-03-02T10:05:08;1.50;;;1.30;;
11703;SDS011;5908;51.354;7.458;2024-03-02T10:07:34;2.53;;;1.52;;
11703;SDS011;5908;51.354;7.458;2024-03-02T10:10:11;2.47;;;1.85;;
11703;SDS011;5908;51.354;7.458;2024-03-02T10:12:39;1.77;;;1.27;;
11703;SDS011;5908;51.354;7.458;2024-03-02T10:15:06;1.77;;;1.50;;
11703;SDS011;5908;51.354;7.458;2024-03-02T10:17:34;2.03;;;1.40;;
11703;SDS011;5908;51.354;7.458;2024-03-02T10:22:51;1.83;;;1.30;;
11703;SDS011;5908;51.354;7.458;2024-03-02T10:25:30;2.00;;;1.73;;
11703;SDS011;5908;51.354;7.458;2024-03-02T10:27:58;1.80;;;1.40;;
11703;SDS011;5908;51.354;7.458;2024-03-02T10:30:25;2.00;;;1.30;;
11703;SDS011;5908;51.354;7.458;2024-03-02T10:32:53;2.08;;;1.40;;
11703;SDS011;5908;51.354;7.458;2024-03-02T10:35:21;1.75;;;1.23;;
11703;SDS011;5908;51.354;7.458;2024-03-02T10:37:51;2.03;;;1.35;;
11703;SDS011;5908;51.354;7.458;2024-03-02T10:40:21;2.05;;;1.27;;
11703;SDS011;5908;51.354;7.458;2024-03-02T10:42:48;2.03;;;1.50;;
11703;SDS011;5908;51.354;7.458;2024-03-02T10:45:16;1.63;;;1.50;;
11703;SDS011;5908;51.354;7.458;2024-03-02T10:47:45;2.13;;;1.65;;
11703;SDS011;5908;51.354;7.458;2024-03-02T10:50:13;1.83;;;1.50;;
11703;SDS011;5908;51.354;7.458;2024-03-02T10:52:41;1.90;;;1.30;;
11703;SDS011;5908;51.354;7.458;2024-03-02T10:55:08;2.17;;;1.97;;
11703;SDS011;5908;51.354;7.458;2024-03-02T10:57:40;3.47;;;1.75;;
11703;SDS011;5908;51.354;7.458;2024-03-02T11:00:12;2.33;;;1.80;;
11703;SDS011;5908;51.354;7.458;2024-03-02T11:02:45;3.17;;;2.30;;
11703;SDS011;5908;51.354;7.458;2024-03-02T11:05:22;2.10;;;1.52;;
11703;SDS011;5908;51.354;7.458;2024-03-02T11:07:56;1.67;;;1.30;;
11703;SDS011;5908;51.354;7.458;2024-03-02T11:10:25;2.40;;;1.60;;
11703;SDS011;5908;51.354;7.458;2024-03-02T11:12:57;2.10;;;1.20;;
11703;SDS011;5908;51.354;7.458;2024-03-02T11:15:29;2.17;;;1.30;;
11703;SDS011;5908;51.354;7.458;2024-03-02T11:17:56;2.17;;;1.40;;
11703;SDS011;5908;51.354;7.458;2024-03-02T11:20:24;2.55;;;1.40;;
11703;SDS011;5908;51.354;7.458;2024-03-02T11:22:51;2.53;;;1.20;;
11703;SDS011;5908;51.354;7.458;2024-03-02T11:25:26;1.47;;;1.20;;
11703;SDS011;5908;51.354;7.458;2024-03-02T11:28:00;2.38;;;1.48;;
11703;SDS011;5908;51.354;7.458;2024-03-02T11:33:22;3.08;;;1.88;;
11703;SDS011;5908;51.354;7.458;2024-03-02T11:35:52;2.40;;;1.40;;
11703;SDS011;5908;51.354;7.458;2024-03-02T11:38:19;1.60;;;1.48;;
11703;SDS011;5908;51.354;7.458;2024-03-02T11:40:47;2.00;;;1.65;;
11703;SDS011;5908;51.354;7.458;2024-03-02T11:43:14;1.58;;;1.30;;
11703;SDS011;5908;51.354;7.458;2024-03-02T11:45:42;1.27;;;1.05;;
11703;SDS011;5908;51.354;7.458;2024-03-02T11:48:13;2.72;;;1.80;;
11703;SDS011;5908;51.354;7.458;2024-03-02T11:50:41;2.88;;;1.80;;
11703;SDS011;5908;51.354;7.458;2024-03-02T11:53:12;1.63;;;1.27;;
11703;SDS011;5908;51.354;7.458;2024-03-02T11:55:39;1.50;;;1.30;;
11703;SDS011;5908;51.354;7.458;2024-03-02T11:58:10;3.72;;;1.88;;
11703;SDS011;5908;51.354;7.458;2024-03-02T12:00:37;1.40;;;1.20;;
11703;SDS011;5908;51.354;7.458;2024-03-02T12:03:04;2.05;;;1.00;;
11703;SDS011;5908;51.354;7.458;2024-03-02T12:05:33;1.50;;;1.27;;
11703;SDS011;5908;51.354;7.458;2024-03-02T12:08:01;1.37;;;1.20;;
11703;SDS011;5908;51.354;7.458;2024-03-02T12:10:29;1.30;;;1.20;;
11703;SDS011;5908;51.354;7.458;2024-03-02T12:12:57;1.30;;;1.20;;
11703;SDS011;5908;51.354;7.458;2024-03-02T12:15:27;1.93;;;1.57;;
11703;SDS011;5908;51.354;7.458;2024-03-02T12:17:55;1.30;;;1.20;;
11703;SDS011;5908;51.354;7.458;2024-03-02T12:20:22;1.48;;;1.25;;
11703;SDS011;5908;51.354;7.458;2024-03-02T12:22:50;1.13;;;1.00;;
11703;SDS011;5908;51.354;7.458;2024-03-02T12:25:18;1.90;;;1.23;;
11703;SDS011;5908;51.354;7.458;2024-03-02T12:27:46;1.08;;;0.90;;
11703;SDS011;5908;51.354;7.458;2024-03-02T12:30:13;1.90;;;1.50;;
11703;SDS011;5908;51.354;7.458;2024-03-02T12:32:42;2.13;;;1.70;;
11703;SDS011;5908;51.354;7.458;2024-03-02T12:35:10;2.55;;;1.67;;
11703;SDS011;5908;51.354;7.458;2024-03-02T12:37:43;2.17;;;1.30;;
11703;SDS011;5908;51.354;7.458;2024-03-02T12:40:11;1.30;;;1.20;;
11703;SDS011;5908;51.354;7.458;2024-03-02T12:42:37;1.38;;;1.25;;
11703;SDS011;5908;51.354;7.458;2024-03-02T12:45:05;2.13;;;1.52;;
11703;SDS011;5908;51.354;7.458;2024-03-02T12:47:32;1.77;;;1.30;;
11703;SDS011;5908;51.354;7.458;2024-03-02T12:50:01;1.88;;;1.10;;
11703;SDS011;5908;51.354;7.458;2024-03-02T12:52:29;1.30;;;1.20;;
11703;SDS011;5908;51.354;7.458;2024-03-02T12:54:57;1.40;;;1.20;;
11703;SDS011;5908;51.354;7.458;2024-03-02T12:57:25;1.50;;;1.00;;
11703;SDS011;5908;51.354;7.458;2024-03-02T12:59:57;1.83;;;1.30;;
11703;SDS011;5908;51.354;7.458;2024-03-02T13:02:27;2.63;;;1.90;;
11703;SDS011;5908;51.354;7.458;2024-03-02T13:04:55;1.02;;;0.73;;
11703;SDS011;5908;51.354;7.458;2024-03-02T13:07:24;5.20;;;3.47;;
11703;SDS011;5908;51.354;7.458;2024-03-02T13:09:51;1.48;;;1.38;;
11703;SDS011;5908;51.354;7.458;2024-03-02T13:12:20;2.92;;;2.17;;
11703;SDS011;5908;51.354;7.458;2024-03-02T13:14:48;1.10;;;1.00;;
11703;SDS011;5908;51.354;7.458;2024-03-02T13:17:17;1.15;;;1.00;;
11703;SDS011;5908;51.354;7.458;2024-03-02T13:19:50;1.75;;;1.20;;
11703;SDS011;5908;51.354;7.458;2024-03-02T13:22:19;1.20;;;1.10;;
11703;SDS011;5908;51.354;7.458;2024-03-02T13:24:47;1.10;;;1.00;;
11703;SDS011;5908;51.354;7.458;2024-03-02T13:27:14;1.73;;;1.00;;
11703;SDS011;5908;51.354;7.458;2024-03-02T13:29:44;1.98;;;1.10;;
11703;SDS011;5908;51.354;7.458;2024-03-02T13:32:11;1.30;;;1.00;;
11703;SDS011;5908;51.354;7.458;2024-03-02T13:34:38;1.25;;;1.15;;
11703;SDS011;5908;51.354;7.458;2024-03-02T13:37:04;1.40;;;1.27;;
11703;SDS011;5908;51.354;7.458;2024-03-02T13:39:31;1.83;;;0.85;;
11703;SDS011;5908;51.354;7.458;2024-03-02T13:42:06;1.15;;;0.90;;
11703;SDS011;5908;51.354;7.458;2024-03-02T13:44:33;0.90;;;0.80;;
11703;SDS011;5908;51.354;7.458;2024-03-02T13:47:00;0.90;;;0.90;;
11703;SDS011;5908;51.354;7.458;2024-03-02T13:49:27;0.90;;;0.70;;
11703;SDS011;5908;51.354;7.458;2024-03-02T13:51:58;2.13;;;1.65;;
11703;SDS011;5908;51.354;7.458;2024-03-02T13:54:29;1.15;;;0.80;;
11703;SDS011;5908;51.354;7.458;2024-03-02T13:56:56;1.38;;;0.95;;
11703;SDS011;5908;51.354;7.458;2024-03-02T13:59:25;1.15;;;0.90;;
11703;SDS011;5908;51.354;7.458;2024-03-02T14:01:52;1.20;;;1.00;;
11703;SDS011;5908;51.354;7.458;2024-03-02T14:04:19;3.33;;;1.42;;
11703;SDS011;5908;51.354;7.458;2024-03-02T14:06:46;7.05;;;5.00;;
11703;SDS011;5908;51.354;7.458;2024-03-02T14:09:13;2.38;;;1.20;;
11703;SDS011;5908;51.354;7.458;2024-03-02T14:11:39;1.10;;;0.98;;
11703;SDS011;5908;51.354;7.458;2024-03-02T14:14:06;1.20;;;1.10;;
11703;SDS011;5908;51.354;7.458;2024-03-02T14:16:35;2.67;;;1.10;;
11703;SDS011;5908;51.354;7.458;2024-03-02T14:19:01;2.05;;;1.20;;
11703;SDS011;5908;51.354;7.458;2024-03-02T14:21:29;2.30;;;1.55;;
11703;SDS011;5908;51.354;7.458;2024-03-02T14:23:56;2.40;;;1.75;;
11703;SDS011;5908;51.354;7.458;2024-03-02T14:26:23;1.73;;;1.40;;
11703;SDS011;5908;51.354;7.458;2024-03-02T14:28:50;1.55;;;1.15;;
11703;SDS011;5908;51.354;7.458;2024-03-02T14:31:17;1.42;;;1.33;;
11703;SDS011;5908;51.354;7.458;2024-03-02T14:33:46;1.60;;;1.17;;
11703;SDS011;5908;51.354;7.458;2024-03-02T14:36:13;1.30;;;1.20;;
11703;SDS011;5908;51.354;7.458;2024-03-02T14:38:39;3.00;;;1.52;;
11703;SDS011;5908;51.354;7.458;2024-03-02T14:41:06;2.13;;;1.60;;
11703;SDS011;5908;51.354;7.458;2024-03-02T14:43:33;3.08;;;1.67;;
11703;SDS011;5908;51.354;7.458;2024-03-02T14:46:00;3.15;;;1.40;;
11703;SDS011;5908;51.354;7.458;2024-03-02T14:48:27;1.85;;;1.40;;
11703;SDS011;5908;51.354;7.458;2024-03-02T14:50:56;1.50;;;1.15;;
11703;SDS011;5908;51.354;7.458;2024-03-02T14:53:23;1.15;;;1.05;;
11703;SDS011;5908;51.354;7.458;2024-03-02T14:55:50;1.40;;;1.20;;
11703;SDS011;5908;51.354;7.458;2024-03-02T14:58:16;2.30;;;1.33;;
11703;SDS011;5908;51.354;7.458;2024-03-02T15:00:44;1.20;;;1.10;;
11703;SDS011;5908;51.354;7.458;2024-03-02T15:03:11;2.83;;;1.90;;
11703;SDS011;5908;51.354;7.458;2024-03-02T15:05:38;1.27;;;1.00;;
11703;SDS011;5908;51.354;7.458;2024-03-02T15:08:07;2.42;;;1.20;;
11703;SDS011;5908;51.354;7.458;2024-03-02T15:10:34;1.73;;;1.10;;
11703;SDS011;5908;51.354;7.458;2024-03-02T15:13:01;1.52;;;1.05;;
11703;SDS011;5908;51.354;7.458;2024-03-02T15:15:28;1.45;;;1.20;;
11703;SDS011;5908;51.354;7.458;2024-03-02T15:17:54;2.80;;;1.60;;
11703;SDS011;5908;51.354;7.458;2024-03-02T15:20:21;1.98;;;1.05;;
11703;SDS011;5908;51.354;7.458;2024-03-02T15:22:48;2.72;;;1.23;;
11703;SDS011;5908;51.354;7.458;2024-03-02T15:25:16;3.25;;;1.25;;
11703;SDS011;5908;51.354;7.458;2024-03-02T15:27:43;1.48;;;1.10;;
11703;SDS011;5908;51.354;7.458;2024-03-02T15:30:10;1.30;;;1.20;;
11703;SDS011;5908;51.354;7.458;2024-03-02T15:32:37;4.05;;;1.75;;
11703;SDS011;5908;51.354;7.458;2024-03-02T15:35:07;3.22;;;1.25;;
11703;SDS011;5908;51.354;7.458;2024-03-02T15:37:38;1.55;;;1.10;;
11703;SDS011;5908;51.354;7.458;2024-03-02T15:40:05;1.50;;;1.10;;
11703;SDS011;5908;51.354;7.458;2024-03-02T15:42:36;1.75;;;1.42;;
11703;SDS011;5908;51.354;7.458;2024-03-02T15:45:03;2.38;;;1.38;;
11703;SDS011;5908;51.354;7.458;2024-03-02T15:47:30;2.17;;;1.33;;
11703;SDS011;5908;51.354;7.458;2024-03-02T15:49:57;1.48;;;1.17;;
11703;SDS011;5908;51.354;7.458;2024-03-02T15:52:24;1.77;;;1.00;;
11703;SDS011;5908;51.354;7.458;2024-03-02T15:54:50;1.80;;;1.20;;
11703;SDS011;5908;51.354;7.458;2024-03-02T15:57:17;2.78;;;1.20;;
11703;SDS011;5908;51.354;7.458;2024-03-02T15:59:46;1.67;;;1.30;;
11703;SDS011;5908;51.354;7.458;2024-03-02T16:02:13;2.40;;;1.13;;
11703;SDS011;5908;51.354;7.458;2024-03-02T16:04:40;6.25;;;4.18;;
11703;SDS011;5908;51.354;7.458;2024-03-02T16:07:07;4.43;;;3.20;;
11703;SDS011;5908;51.354;7.458;2024-03-02T16:09:34;1.92;;;1.58;;
11703;SDS011;5908;51.354;7.458;2024-03-02T16:12:00;2.88;;;1.92;;
11703;SDS011;5908;51.354;7.458;2024-03-02T16:14:27;2.20;;;1.13;;
11703;SDS011;5908;51.354;7.458;2024-03-02T16:16:55;1.00;;;0.90;;
11703;SDS011;5908;51.354;7.458;2024-03-02T16:19:23;2.78;;;1.30;;
11703;SDS011;5908;51.354;7.458;2024-03-02T16:21:50;2.35;;;1.83;;
11703;SDS011;5908;51.354;7.458;2024-03-02T16:24:16;1.00;;;0.90;;
11703;SDS011;5908;51.354;7.458;2024-03-02T16:26:43;10.30;;;7.63;;
11703;SDS011;5908;51.354;7.458;2024-03-02T16:29:10;3.10;;;1.75;;
11703;SDS011;5908;51.354;7.458;2024-03-02T16:31:39;1.00;;;0.90;;
11703;SDS011;5908;51.354;7.458;2024-03-02T16:34:09;1.75;;;1.13;;
11703;SDS011;5908;51.354;7.458;2024-03-02T16:36:36;1.33;;;1.02;;
11703;SDS011;5908;51.354;7.458;2024-03-02T16:39:05;1.15;;;0.90;;
11703;SDS011;5908;51.354;7.458;2024-03-02T16:41:33;1.85;;;1.00;;
11703;SDS011;5908;51.354;7.458;2024-03-02T16:44:00;1.02;;;0.80;;
11703;SDS011;5908;51.354;7.458;2024-03-02T16:46:29;1.65;;;1.15;;
11703;SDS011;5908;51.354;7.458;2024-03-02T16:48:56;1.40;;;1.17;;
11703;SDS011;5908;51.354;7.458;2024-03-02T16:51:24;1.00;;;0.90;;
11703;SDS011;5908;51.354;7.458;2024-03-02T16:53:51;2.27;;;1.80;;
11703;SDS011;5908;51.354;7.458;2024-03-02T16:56:18;1.30;;;0.90;;
11703;SDS011;5908;51.354;7.458;2024-03-02T16:58:44;0.70;;;0.70;;
11703;SDS011;5908;51.354;7.458;2024-03-02T17:01:11;1.83;;;1.20;;
11703;SDS011;5908;51.354;7.458;2024-03-02T17:03:38;1.20;;;1.10;;
11703;SDS011;5908;51.354;7.458;2024-03-02T17:06:05;1.50;;;1.10;;
11703;SDS011;5908;51.354;7.458;2024-03-02T17:08:33;4.07;;;1.70;;
11703;SDS011;5908;51.354;7.458;2024-03-02T17:11:00;2.13;;;1.40;;
11703;SDS011;5908;51.354;7.458;2024-03-02T17:13:28;1.50;;;1.23;;
11703;SDS011;5908;51.354;7.458;2024-03-02T17:15:55;1.10;;;0.85;;
11703;SDS011;5908;51.354;7.458;2024-03-02T17:18:22;1.27;;;1.00;;
11703;SDS011;5908;51.354;7.458;2024-03-02T17:20:49;1.65;;;1.00;;
11703;SDS011;5908;51.354;7.458;2024-03-02T17:23:15;1.48;;;1.10;;
11703;SDS011;5908;51.354;7.458;2024-03-02T17:25:43;1.85;;;1.30;;
11703;SDS011;5908;51.354;7.458;2024-03-02T17:28:20;2.47;;;1.40;;
11703;SDS011;5908;51.354;7.458;2024-03-02T17:30:47;1.50;;;1.27;;
11703;SDS011;5908;51.354;7.458;2024-03-02T17:33:14;1.30;;;1.20;;
11703;SDS011;5908;51.354;7.458;2024-03-02T17:35:41;2.58;;;1.40;;
11703;SDS011;5908;51.354;7.458;2024-03-02T17:38:10;2.00;;;1.70;;
11703;SDS011;5908;51.354;7.458;2024-03-02T17:40:37;2.50;;;1.63;;
11703;SDS011;5908;51.354;7.458;2024-03-02T17:43:05;1.67;;;1.40;;
11703;SDS011;5908;51.354;7.458;2024-03-02T17:45:33;1.95;;;1.50;;
11703;SDS011;5908;51.354;7.458;2024-03-02T17:48:00;1.90;;;1.60;;
11703;SDS011;5908;51.354;7.458;2024-03-02T17:50:26;2.50;;;1.60;;
11703;SDS011;5908;51.354;7.458;2024-03-02T17:52:54;1.60;;;1.50;;
11703;SDS011;5908;51.354;7.458;2024-03-02T17:55:21;2.08;;;1.50;;
11703;SDS011;5908;51.354;7.458;2024-03-02T17:57:48;2.87;;;2.03;;
11703;SDS011;5908;51.354;7.458;2024-03-02T18:00:17;2.17;;;1.50;;
11703;SDS011;5908;51.354;7.458;2024-03-02T18:02:46;2.63;;;1.77;;
11703;SDS011;5908;51.354;7.458;2024-03-02T18:05:13;2.00;;;1.60;;
11703;SDS011;5908;51.354;7.458;2024-03-02T18:07:39;2.67;;;1.80;;
11703;SDS011;5908;51.354;7.458;2024-03-02T18:10:07;3.20;;;1.90;;
11703;SDS011;5908;51.354;7.458;2024-03-02T18:12:34;2.08;;;1.60;;
11703;SDS011;5908;51.354;7.458;2024-03-02T18:15:01;2.55;;;1.85;;
11703;SDS011;5908;51.354;7.458;2024-03-02T18:17:29;3.80;;;2.20;;
11703;SDS011;5908;51.354;7.458;2024-03-02T18:19:56;2.00;;;1.55;;
11703;SDS011;5908;51.354;7.458;2024-03-02T18:22:23;2.40;;;1.75;;
11703;SDS011;5908;51.354;7.458;2024-03-02T18:24:49;1.85;;;1.60;;
11703;SDS011;5908;51.354;7.458;2024-03-02T18:27:16;3.30;;;2.53;;
11703;SDS011;5908;51.354;7.458;2024-03-02T18:29:43;2.50;;;1.80;;
11703;SDS011;5908;51.354;7.458;2024-03-02T18:32:10;2.15;;;1.48;;
11703;SDS011;5908;51.354;7.458;2024-03-02T18:34:38;1.80;;;1.60;;
11703;SDS011;5908;51.354;7.458;2024-03-02T18:37:05;1.98;;;1.50;;
11703;SDS011;5908;51.354;7.458;2024-03-02T18:39:32;1.65;;;1.50;;
11703;SDS011;5908;51.354;7.458;2024-03-02T18:42:00;2.55;;;1.60;;
11703;SDS011;5908;51.354;7.458;2024-03-02T18:44:26;2.15;;;1.77;;
11703;SDS011;5908;51.354;7.458;2024-03-02T18:46:53;3.55;;;2.03;;
11703;SDS011;5908;51.354;7.458;2024-03-02T18:49:20;2.95;;;1.90;;
11703;SDS011;5908;51.354;7.458;2024-03-02T18:51:49;2.47;;;1.63;;
11703;SDS011;5908;51.354;7.458;2024-03-02T18:54:16;2.28;;;1.70;;
11703;SDS011;5908;51.354;7.458;2024-03-02T18:56:43;2.85;;;1.80;;
11703;SDS011;5908;51.354;7.458;2024-03-02T18:59:10;2.20;;;1.67;;
11703;SDS011;5908;51.354;7.458;2024-03-02T19:01:36;2.83;;;1.80;;
11703;SDS011;5908;51.354;7.458;2024-03-02T19:04:03;2.10;;;1.90;;
11703;SDS011;5908;51.354;7.458;2024-03-02T19:06:30;5.47;;;4.23;;
11703;SDS011;5908;51.354;7.458;2024-03-02T19:08:59;2.65;;;1.85;;